createdAt,value
2024-03-05T00:01:06.526Z,22.95
2024-03-05T00:04:09.369Z,24.37
2024-03-05T00:07:11.717Z,23.77
2024-03-05T00:10:14.805Z,25.30
2024-03-05T00:13:18.793Z,24.70
2024-03-05T00:16:21.837Z,25.85
2024-03-05T00:19:26.991Z,21.02
2024-03-05T00:22:29.752Z,22.50
2024-03-05T00:25:32.747Z,24.55
2024-03-05T00:28:35.866Z,22.17
2024-03-05T00:31:41.235Z,23.48
2024-03-05T00:34:44.051Z,25.12
2024-03-05T00:37:46.438Z,24.70
2024-03-05T00:40:49.811Z,27.60
2024-03-05T00:43:53.347Z,29.55
2024-03-05T00:46:56.289Z,29.25
2024-03-05T00:50:00.385Z,24.80
2024-03-05T00:53:03.170Z,25.17
2024-03-05T00:56:07.488Z,23.85
2024-03-05T00:59:10.238Z,24.70
2024-03-05T01:02:12.726Z,28.52
2024-03-05T01:05:15.607Z,24.50
2024-03-05T01:08:17.970Z,21.60
2024-03-05T01:11:20.834Z,23.15
2024-03-05T01:14:23.652Z,23.40
2024-03-05T01:17:28.775Z,26.58
2024-03-05T01:20:31.250Z,27.92
2024-03-05T01:23:34.538Z,22.10
2024-03-05T01:26:38.933Z,24.75
2024-03-05T01:29:42.996Z,24.37
2024-03-05T01:32:45.810Z,28.15
2024-03-05T01:35:49.606Z,20.05
2024-03-05T01:38:53.096Z,21.67
2024-03-05T01:41:57.303Z,20.88
2024-03-05T01:45:00.102Z,22.30
2024-03-05T01:48:03.038Z,26.30
2024-03-05T01:51:06.500Z,23.23
2024-03-05T01:54:09.378Z,25.27
2024-03-05T01:57:12.076Z,27.83
2024-03-05T02:00:21.916Z,22.58
2024-03-05T02:03:24.868Z,21.55
2024-03-05T02:06:28.349Z,25.52
2024-03-05T02:09:37.496Z,22.50
2024-03-05T02:12:42.257Z,22.23
2024-03-05T02:15:45.167Z,30.17
2024-03-05T02:18:47.856Z,20.15
2024-03-05T02:22:04.634Z,23.80
2024-03-05T02:25:07.672Z,26.35
2024-03-05T02:28:11.819Z,17.70
2024-03-05T02:31:14.692Z,20.15
2024-03-05T02:34:17.650Z,21.80
2024-03-05T02:37:20.417Z,17.33
2024-03-05T02:40:23.347Z,22.35
2024-03-05T02:43:25.776Z,20.98
2024-03-05T02:46:28.517Z,20.00
2024-03-05T02:49:30.926Z,19.55
2024-03-05T02:52:33.667Z,21.52
2024-03-05T02:55:39.377Z,16.17
2024-03-05T02:58:43.443Z,18.90
2024-03-05T03:01:49.671Z,18.23
2024-03-05T03:04:52.903Z,21.60
2024-03-05T03:07:55.509Z,17.67
2024-03-05T03:10:58.633Z,19.75
2024-03-05T03:14:02.007Z,20.48
2024-03-05T03:17:05.423Z,30.73
2024-03-05T03:20:09.448Z,21.23
2024-03-05T03:23:12.199Z,20.42
2024-03-05T03:26:14.723Z,19.25
2024-03-05T03:29:17.632Z,23.75
2024-03-05T03:32:23.417Z,20.08
2024-03-05T03:35:26.255Z,16.33
2024-03-05T03:38:28.643Z,15.68
2024-03-05T03:41:31.438Z,21.55
2024-03-05T03:44:35.970Z,19.45
2024-03-05T03:47:38.718Z,25.08
2024-03-05T03:50:41.298Z,22.08
2024-03-05T03:53:44.960Z,20.85
2024-03-05T03:56:47.593Z,16.40
2024-03-05T03:59:50.429Z,22.37
2024-03-05T04:02:53.052Z,22.17
2024-03-05T04:05:55.860Z,20.77
2024-03-05T04:08:58.450Z,24.12
2024-03-05T04:12:02.929Z,21.98
2024-03-05T04:15:06.635Z,23.45
2024-03-05T04:18:09.475Z,20.33
2024-03-05T04:21:12.033Z,18.30
2024-03-05T04:24:15.594Z,22.42
2024-03-05T04:27:19.770Z,25.95
2024-03-05T04:30:24.582Z,19.85
2024-03-05T04:33:29.533Z,19.73
2024-03-05T04:36:35.629Z,23.50
2024-03-05T04:39:43.087Z,19.45
2024-03-05T04:42:46.513Z,22.35
2024-03-05T04:45:51.213Z,25.77
2024-03-05T04:48:53.681Z,22.83
2024-03-05T04:51:55.881Z,28.38
2024-03-05T04:54:58.366Z,22.95
2024-03-05T04:58:00.563Z,17.73
2024-03-05T05:01:03.635Z,20.70
2024-03-05T05:04:06.774Z,19.73
2024-03-05T05:07:09.343Z,24.08
2024-03-05T05:10:11.929Z,19.17
2024-03-05T05:13:14.743Z,20.23
2024-03-05T05:16:17.309Z,27.52
2024-03-05T05:19:19.901Z,21.77
2024-03-05T05:22:22.224Z,20.12
2024-03-05T05:25:25.022Z,26.50
2024-03-05T05:28:28.232Z,24.10
2024-03-05T05:31:30.899Z,24.80
2024-03-05T05:34:33.698Z,22.25
2024-03-05T05:37:38.167Z,24.73
2024-03-05T05:40:41.140Z,28.08
2024-03-05T05:43:44.693Z,24.50
2024-03-05T05:46:47.412Z,25.12
2024-03-05T05:49:50.233Z,27.87
2024-03-05T05:52:54.522Z,31.75
2024-03-05T05:55:57.151Z,27.30
2024-03-05T05:58:59.545Z,23.92
2024-03-05T06:02:02.301Z,18.85
2024-03-05T06:05:10.010Z,26.58
2024-03-05T06:08:12.850Z,30.30
2024-03-05T06:11:15.895Z,26.85
2024-03-05T06:14:18.215Z,23.62
2024-03-05T06:17:21.013Z,24.37
2024-03-05T06:20:23.918Z,29.10
2024-03-05T06:23:31.579Z,27.98
2024-03-05T06:26:45.570Z,22.58
2024-03-05T06:29:48.572Z,22.15
2024-03-05T06:33:00.540Z,29.08
2024-03-05T06:36:07.800Z,25.83
2024-03-05T06:39:22.195Z,24.63
2024-03-05T06:42:25.410Z,25.70
2024-03-05T06:45:29.244Z,30.02
2024-03-05T06:48:34.449Z,30.48
2024-03-05T06:51:43.357Z,27.05
2024-03-05T06:55:04.424Z,27.58
2024-03-05T06:58:20.424Z,37.67
2024-03-05T07:01:34.453Z,36.15
2024-03-05T07:04:36.780Z,28.42
2024-03-05T07:07:44.091Z,29.95
2024-03-05T07:10:50.739Z,31.90
2024-03-05T07:13:54.164Z,32.22
2024-03-05T07:16:56.942Z,31.05
2024-03-05T07:19:59.535Z,26.48
2024-03-05T07:23:03.815Z,24.08
2024-03-05T07:26:08.011Z,37.45
2024-03-05T07:29:12.911Z,31.65
2024-03-05T07:32:27.229Z,27.40
2024-03-05T07:35:31.119Z,30.92
2024-03-05T07:38:43.000Z,32.75
2024-03-05T07:41:58.554Z,33.67
2024-03-05T07:45:09.024Z,29.08
2024-03-05T07:48:16.054Z,30.58
2024-03-05T07:51:44.325Z,29.70
2024-03-05T12:18:32.939Z,9.95
2024-03-05T12:21:40.122Z,14.13
2024-03-05T12:24:42.751Z,12.95
2024-03-05T12:27:49.190Z,18.40
2024-03-05T12:30:52.337Z,17.05
2024-03-05T12:33:55.240Z,22.52
2024-03-05T12:36:57.817Z,19.95
2024-03-05T12:40:04.611Z,19.17
2024-03-05T12:43:08.214Z,21.12
2024-03-05T12:46:10.786Z,19.00
2024-03-05T12:49:16.086Z,19.65
2024-03-05T12:52:20.887Z,20.80
2024-03-05T12:55:23.321Z,17.30
2024-03-05T12:58:28.163Z,15.48
2024-03-05T13:01:30.932Z,18.35
2024-03-05T13:04:35.100Z,15.35
2024-03-05T13:07:38.438Z,19.42
2024-03-05T13:10:41.076Z,24.40
2024-03-05T13:13:43.388Z,19.58
2024-03-05T13:16:46.514Z,18.52
2024-03-05T13:19:48.896Z,23.58
2024-03-05T13:22:54.880Z,18.15
2024-03-05T13:25:59.082Z,15.57
2024-03-05T13:29:02.773Z,14.18
2024-03-05T13:32:06.166Z,15.93
2024-03-05T13:35:09.690Z,21.92
2024-03-05T13:38:12.119Z,24.00
2024-03-05T13:41:15.737Z,25.15
2024-03-05T13:44:18.602Z,26.60
2024-03-05T13:47:22.766Z,25.45
2024-03-05T13:50:25.654Z,25.60
2024-03-05T13:53:28.339Z,26.37
2024-03-05T13:56:32.363Z,25.02
2024-03-05T13:59:34.968Z,23.92
2024-03-05T14:02:37.272Z,25.08
2024-03-05T14:05:39.839Z,28.90
2024-03-05T14:08:44.587Z,27.27
2024-03-05T14:11:50.283Z,24.00
2024-03-05T14:14:52.739Z,27.85
2024-03-05T14:17:55.365Z,25.25
2024-03-05T14:20:57.885Z,29.87
2024-03-05T14:24:00.693Z,25.58
2024-03-05T14:27:03.054Z,26.80
2024-03-05T14:30:08.893Z,19.90
2024-03-05T14:33:11.994Z,23.00
2024-03-05T14:36:15.422Z,25.80
2024-03-05T14:39:18.127Z,25.00
2024-03-05T14:42:20.937Z,35.88
2024-03-05T14:45:23.762Z,23.95
2024-03-05T14:48:26.458Z,28.00
2024-03-05T14:51:30.005Z,36.33
2024-03-05T14:54:32.639Z,27.42
2024-03-05T14:57:35.078Z,30.83
2024-03-05T15:00:38.008Z,27.40
2024-03-05T15:03:40.641Z,31.08
2024-03-05T15:06:43.126Z,24.98
2024-03-05T15:09:45.387Z,22.90
2024-03-05T15:12:50.250Z,26.20
2024-03-05T15:15:52.413Z,26.23
2024-03-05T15:18:54.883Z,38.83
2024-03-05T15:21:59.904Z,26.37
2024-03-05T15:25:08.323Z,22.25
2024-03-05T15:28:10.616Z,33.08
2024-03-05T15:31:13.195Z,31.10
2024-03-05T15:34:15.816Z,30.48
2024-03-05T15:37:18.410Z,24.23
2024-03-05T15:40:30.076Z,32.80
2024-03-05T15:43:37.404Z,25.33
2024-03-05T15:46:41.421Z,26.98
2024-03-05T15:49:44.718Z,26.62
2024-03-05T15:52:55.263Z,30.08
2024-03-05T15:56:13.638Z,27.92
2024-03-05T15:59:34.987Z,33.47
2024-03-05T16:02:37.899Z,29.35
2024-03-05T16:05:52.090Z,31.52
2024-03-05T16:09:04.525Z,38.60
2024-03-05T16:12:12.262Z,29.40
2024-03-05T16:15:16.830Z,32.22
2024-03-05T16:18:20.372Z,34.20
2024-03-05T16:21:25.279Z,30.85
2024-03-05T16:24:29.360Z,33.28
2024-03-05T16:27:32.066Z,27.52
2024-03-05T16:30:35.582Z,29.37
2024-03-05T16:33:38.061Z,27.15
2024-03-05T16:36:41.242Z,29.90
2024-03-05T16:39:44.758Z,32.40
2024-03-05T16:42:49.675Z,29.02
2024-03-05T16:45:53.571Z,27.30
2024-03-05T16:48:56.516Z,28.02
2024-03-05T16:51:59.419Z,25.85
2024-03-05T16:55:02.645Z,26.02
2024-03-05T16:58:11.419Z,25.85
2024-03-05T17:01:18.661Z,25.10
2024-03-05T17:04:24.974Z,24.37
2024-03-05T17:07:28.833Z,26.20
2024-03-05T17:10:32.091Z,27.48
2024-03-05T17:13:38.307Z,27.50
2024-03-05T17:16:46.128Z,27.35
2024-03-05T17:19:49.800Z,35.30
2024-03-05T17:22:56.553Z,32.90
2024-03-05T17:26:02.539Z,30.05
2024-03-05T17:29:08.549Z,27.87
2024-03-05T17:32:11.933Z,31.67
2024-03-05T17:35:15.890Z,35.72
2024-03-05T17:38:20.005Z,29.05
2024-03-05T17:41:23.544Z,36.05
2024-03-05T17:44:26.842Z,33.15
2024-03-05T17:47:31.018Z,32.60
2024-03-05T17:50:36.398Z,33.40
2024-03-05T17:53:39.614Z,34.97
2024-03-05T17:56:44.773Z,36.88
2024-03-05T17:59:48.115Z,37.10
2024-03-05T18:02:53.494Z,31.27
2024-03-05T18:05:56.614Z,33.25
2024-03-05T18:08:59.833Z,40.78
2024-03-05T18:12:05.661Z,35.35
2024-03-05T18:15:09.153Z,40.38
2024-03-05T18:18:16.239Z,46.88
2024-03-05T18:21:20.043Z,38.08
2024-03-05T18:24:23.096Z,37.38
2024-03-05T18:27:27.225Z,34.63
2024-03-05T18:30:32.672Z,39.35
2024-03-05T18:33:35.641Z,42.33
2024-03-05T18:36:41.259Z,35.83
2024-03-05T18:39:43.989Z,43.78
2024-03-05T18:42:51.097Z,39.60
2024-03-05T18:45:54.980Z,43.28
2024-03-05T18:48:58.862Z,46.13
2024-03-05T18:52:04.674Z,45.10
2024-03-05T18:55:10.681Z,39.60
2024-03-05T18:58:13.470Z,44.15
2024-03-05T19:01:16.997Z,43.55
2024-03-05T19:04:23.873Z,40.47
2024-03-05T19:07:30.053Z,39.97
2024-03-05T19:10:34.765Z,33.45
2024-03-05T19:13:38.197Z,39.45
2024-03-05T19:16:41.378Z,39.55
2024-03-05T19:19:48.639Z,40.47
2024-03-05T19:22:53.199Z,36.38
2024-03-05T19:25:57.614Z,38.40
2024-03-05T19:29:01.073Z,38.20
2024-03-05T19:32:06.467Z,36.78
2024-03-05T19:35:15.333Z,37.67
2024-03-05T19:38:18.597Z,31.95
2024-03-05T19:41:21.291Z,34.47
2024-03-05T19:44:24.728Z,37.20
2024-03-05T19:47:29.263Z,33.25
2024-03-05T19:50:34.392Z,32.47
2024-03-05T19:53:37.260Z,36.92
2024-03-05T19:56:42.990Z,32.38
2024-03-05T19:59:45.999Z,30.12
2024-03-05T20:02:49.347Z,27.85
2024-03-05T20:05:52.758Z,29.02
2024-03-05T20:08:55.829Z,28.48
2024-03-05T20:11:59.523Z,26.42
2024-03-05T20:15:09.888Z,29.42
2024-03-05T20:18:14.357Z,29.27
2024-03-05T20:21:17.243Z,27.95
2024-03-05T20:24:20.329Z,28.75
2024-03-05T20:27:23.316Z,25.17
2024-03-05T20:30:29.735Z,31.85
2024-03-05T20:33:38.989Z,30.25
2024-03-05T20:36:44.586Z,30.77
2024-03-05T20:39:53.290Z,31.60
2024-03-05T20:42:56.981Z,33.28
